sensor_id;sensor_type;location;lat;lon;timestamp;temperature;humidity
74488;DHT22;63019;51.080;13.642;2023-11-21T00:00:44;8.90;99.90
74488;DHT22;63019;51.080;13.642;2023-11-21T00:01:47;8.90;99.90
74488;DHT22;63019;51.080;13.642;2023-11-21T00:02:49;8.90;99.90
74488;DHT22;63019;51.080;13.642;2023-11-21T00:03:51;8.90;99.90
74488;DHT22;63019;51.080;13.642;2023-11-21T00:04:56;8.90;99.90
74488;DHT22;63019;51.080;13.642;2023-11-21T00:05:58;8.90;99.90
74488;DHT22;63019;51.080;13.642;2023-11-21T00:07:00;8.90;99.90
74488;DHT22;63019;51.080;13.642;2023-11-21T00:08:02;8.90;99.90
74488;DHT22;63019;51.080;13.642;2023-11-21T00:09:03;8.80;99.90
74488;DHT22;63019;51.080;13.642;2023-11-21T00:10:07;8.80;99.90
74488;DHT22;63019;51.080;13.642;2023-11-21T00:11:12;8.80;99.90
74488;DHT22;63019;51.080;13.642;2023-11-21T00:12:14;8.90;99.90
74488;DHT22;63019;51.080;13.642;2023-11-21T00:13:16;8.80;99.90
74488;DHT22;63019;51.080;13.642;2023-11-21T00:14:19;8.80;99.90
74488;DHT22;63019;51.080;13.642;2023-11-21T00:15:21;8.80;99.90
74488;DHT22;63019;51.080;13.642;2023-11-21T00:16:24;8.80;99.90
74488;DHT22;63019;51.080;13.642;2023-11-21T00:17:27;8.80;99.90
74488;DHT22;63019;51.080;13.642;2023-11-21T00:18:29;8.80;99.90
74488;DHT22;63019;51.080;13.642;2023-11-21T00:19:32;8.80;99.90
74488;DHT22;63019;51.080;13.642;2023-11-21T00:20:35;8.90;99.90
74488;DHT22;63019;51.080;13.642;2023-11-21T00:21:36;8.80;99.90
74488;DHT22;63019;51.080;13.642;2023-11-21T00:22:39;8.80;99.90
74488;DHT22;63019;51.080;13.642;2023-11-21T00:23:42;8.90;99.90
74488;DHT22;63019;51.080;13.642;2023-11-21T00:24:44;8.80;99.90
74488;DHT22;63019;51.080;13.642;2023-11-21T00:25:46;8.80;99.90
74488;DHT22;63019;51.080;13.642;2023-11-21T00:26:48;8.80;99.90
74488;DHT22;63019;51.080;13.642;2023-11-21T00:27:50;8.80;99.90
74488;DHT22;63019;51.080;13.642;2023-11-21T00:28:53;8.80;99.90
74488;DHT22;63019;51.080;13.642;2023-11-21T00:29:54;8.80;99.90
74488;DHT22;63019;51.080;13.642;2023-11-21T00:30:56;8.80;99.90
74488;DHT22;63019;51.080;13.642;2023-11-21T00:31:58;8.80;99.90
74488;DHT22;63019;51.080;13.642;2023-11-21T00:33:00;8.80;99.90
74488;DHT22;63019;51.080;13.642;2023-11-21T00:34:05;8.80;99.90
74488;DHT22;63019;51.080;13.642;2023-11-21T00:35:07;8.80;99.90
74488;DHT22;63019;51.080;13.642;2023-11-21T00:36:09;8.90;99.90
74488;DHT22;63019;51.080;13.642;2023-11-21T00:37:11;8.90;99.90
74488;DHT22;63019;51.080;13.642;2023-11-21T00:38:13;8.80;99.90
74488;DHT22;63019;51.080;13.642;2023-11-21T00:39:15;8.80;99.90
74488;DHT22;63019;51.080;13.642;2023-11-21T00:40:17;8.80;99.90
74488;DHT22;63019;51.080;13.642;2023-11-21T00:41:23;8.90;99.90
74488;DHT22;63019;51.080;13.642;2023-11-21T00:42:24;8.90;99.90
74488;DHT22;63019;51.080;13.642;2023-11-21T00:43:26;8.90;99.90
74488;DHT22;63019;51.080;13.642;2023-11-21T00:44:28;8.90;99.90
74488;DHT22;63019;51.080;13.642;2023-11-21T00:45:30;8.90;99.90
74488;DHT22;63019;51.080;13.642;2023-11-21T00:46:32;8.90;99.90
74488;DHT22;63019;51.080;13.642;2023-11-21T00:47:34;8.90;99.90
74488;DHT22;63019;51.080;13.642;2023-11-21T00:48:36;8.80;99.90
74488;DHT22;63019;51.080;13.642;2023-11-21T00:49:38;8.90;99.90
74488;DHT22;63019;51.080;13.642;2023-11-21T00:50:40;8.90;99.90
74488;DHT22;63019;51.080;13.642;2023-11-21T00:51:42;8.90;99.90
74488;DHT22;63019;51.080;13.642;2023-11-21T00:52:44;8.80;99.90
74488;DHT22;63019;51.080;13.642;2023-11-21T00:53:47;8.80;99.90
74488;DHT22;63019;51.080;13.642;2023-11-21T00:54:49;8.80;99.90
74488;DHT22;63019;51.080;13.642;2023-11-21T00:55:51;8.80;99.90
74488;DHT22;63019;51.080;13.642;2023-11-21T00:56:59;8.80;99.90
74488;DHT22;63019;51.080;13.642;2023-11-21T00:58:01;8.80;99.90
74488;DHT22;63019;51.080;13.642;2023-11-21T00:59:05;8.80;99.90
74488;DHT22;63019;51.080;13.642;2023-11-21T01:00:08;8.80;99.90
74488;DHT22;63019;51.080;13.642;2023-11-21T01:01:19;8.80;99.90
74488;DHT22;63019;51.080;13.642;2023-11-21T01:02:21;8.80;99.90
74488;DHT22;63019;51.080;13.642;2023-11-21T01:03:23;8.80;99.90
74488;DHT22;63019;51.080;13.642;2023-11-21T01:04:25;8.80;99.90
74488;DHT22;63019;51.080;13.642;2023-11-21T01:05:27;8.80;99.90
74488;DHT22;63019;51.080;13.642;2023-11-21T01:06:28;8.80;99.90
74488;DHT22;63019;51.080;13.642;2023-11-21T01:07:31;8.80;99.90
74488;DHT22;63019;51.080;13.642;2023-11-21T01:08:33;8.80;99.90
74488;DHT22;63019;51.080;13.642;2023-11-21T01:09:35;8.80;99.90
74488;DHT22;63019;51.080;13.642;2023-11-21T01:10:37;8.90;99.90
74488;DHT22;63019;51.080;13.642;2023-11-21T01:11:38;8.90;99.90
74488;DHT22;63019;51.080;13.642;2023-11-21T01:12:40;8.90;99.90
74488;DHT22;63019;51.080;13.642;2023-11-21T01:13:43;8.90;99.90
74488;DHT22;63019;51.080;13.642;2023-11-21T01:14:46;8.80;99.90
74488;DHT22;63019;51.080;13.642;2023-11-21T01:15:48;8.80;99.90
74488;DHT22;63019;51.080;13.642;2023-11-21T01:16:50;8.80;99.90
74488;DHT22;63019;51.080;13.642;2023-11-21T01:17:52;8.80;99.90
74488;DHT22;63019;51.080;13.642;2023-11-21T01:18:54;8.80;99.90
74488;DHT22;63019;51.080;13.642;2023-11-21T01:19:56;8.80;99.90
74488;DHT22;63019;51.080;13.642;2023-11-21T01:20:59;8.90;99.90
74488;DHT22;63019;51.080;13.642;2023-11-21T01:22:02;8.90;99.90
74488;DHT22;63019;51.080;13.642;2023-11-21T01:23:04;8.80;99.90
74488;DHT22;63019;51.080;13.642;2023-11-21T01:24:06;8.90;99.90
74488;DHT22;63019;51.080;13.642;2023-11-21T01:25:09;8.80;99.90
74488;DHT22;63019;51.080;13.642;2023-11-21T01:26:12;8.80;99.90
74488;DHT22;63019;51.080;13.642;2023-11-21T01:27:14;8.80;99.90
74488;DHT22;63019;51.080;13.642;2023-11-21T01:28:16;8.80;99.90
74488;DHT22;63019;51.080;13.642;2023-11-21T01:29:18;8.80;99.90
74488;DHT22;63019;51.080;13.642;2023-11-21T01:30:20;8.70;99.90
74488;DHT22;63019;51.080;13.642;2023-11-21T01:31:22;8.80;99.90
74488;DHT22;63019;51.080;13.642;2023-11-21T01:32:24;8.80;99.90
74488;DHT22;63019;51.080;13.642;2023-11-21T01:33:26;8.80;99.90
74488;DHT22;63019;51.080;13.642;2023-11-21T01:34:27;8.80;99.90
74488;DHT22;63019;51.080;13.642;2023-11-21T01:35:30;8.80;99.90
74488;DHT22;63019;51.080;13.642;2023-11-21T01:36:32;8.80;99.90
74488;DHT22;63019;51.080;13.642;2023-11-21T01:37:34;8.80;99.90
74488;DHT22;63019;51.080;13.642;2023-11-21T01:38:36;8.80;99.90
74488;DHT22;63019;51.080;13.642;2023-11-21T01:39:38;8.80;99.90
74488;DHT22;63019;51.080;13.642;2023-11-21T01:40:40;8.80;99.90
74488;DHT22;63019;51.080;13.642;2023-11-21T01:41:42;8.80;99.90
74488;DHT22;63019;51.080;13.642;2023-11-21T01:42:47;8.80;99.90
74488;DHT22;63019;51.080;13.642;2023-11-21T01:43:50;8.80;99.90
74488;DHT22;63019;51.080;13.642;2023-11-21T01:44:53;8.80;99.90
74488;DHT22;63019;51.080;13.642;2023-11-21T01:45:57;8.80;99.90
74488;DHT22;63019;51.080;13.642;2023-11-21T01:46:59;8.80;99.90
74488;DHT22;63019;51.080;13.642;2023-11-21T01:48:02;8.70;99.90
74488;DHT22;63019;51.080;13.642;2023-11-21T01:49:05;8.80;99.90
74488;DHT22;63019;51.080;13.642;2023-11-21T01:50:14;8.80;99.90
74488;DHT22;63019;51.080;13.642;2023-11-21T01:51:17;8.80;99.90
74488;DHT22;63019;51.080;13.642;2023-11-21T01:52:20;8.80;99.90
74488;DHT22;63019;51.080;13.642;2023-11-21T01:53:24;8.80;99.90
74488;DHT22;63019;51.080;13.642;2023-11-21T01:54:27;8.70;99.90
74488;DHT22;63019;51.080;13.642;2023-11-21T01:55:33;8.80;99.90
74488;DHT22;63019;51.080;13.642;2023-11-21T01:56:35;8.70;99.90
74488;DHT22;63019;51.080;13.642;2023-11-21T01:57:38;8.70;99.90
74488;DHT22;63019;51.080;13.642;2023-11-21T01:58:40;8.70;99.90
74488;DHT22;63019;51.080;13.642;2023-11-21T01:59:44;8.70;99.90
74488;DHT22;63019;51.080;13.642;2023-11-21T02:00:47;8.70;99.90
74488;DHT22;63019;51.080;13.642;2023-11-21T02:01:52;8.70;99.90
74488;DHT22;63019;51.080;13.642;2023-11-21T02:02:54;8.70;99.90
74488;DHT22;63019;51.080;13.642;2023-11-21T02:03:56;8.70;99.90
74488;DHT22;63019;51.080;13.642;2023-11-21T02:04:58;8.70;99.90
74488;DHT22;63019;51.080;13.642;2023-11-21T02:06:00;8.70;99.90
74488;DHT22;63019;51.080;13.642;2023-11-21T02:07:02;8.70;99.90
74488;DHT22;63019;51.080;13.642;2023-11-21T02:08:07;8.70;99.90
74488;DHT22;63019;51.080;13.642;2023-11-21T02:09:11;8.70;99.90
74488;DHT22;63019;51.080;13.642;2023-11-21T02:10:16;8.70;99.90
74488;DHT22;63019;51.080;13.642;2023-11-21T02:11:19;8.70;99.90
74488;DHT22;63019;51.080;13.642;2023-11-21T02:12:21;8.70;99.90
74488;DHT22;63019;51.080;13.642;2023-11-21T02:13:22;8.70;99.90
74488;DHT22;63019;51.080;13.642;2023-11-21T02:14:26;8.70;99.90
74488;DHT22;63019;51.080;13.642;2023-11-21T02:15:29;8.60;99.90
74488;DHT22;63019;51.080;13.642;2023-11-21T02:16:31;8.70;99.90
74488;DHT22;63019;51.080;13.642;2023-11-21T02:17:38;8.70;99.90
74488;DHT22;63019;51.080;13.642;2023-11-21T02:18:40;8.70;99.90
74488;DHT22;63019;51.080;13.642;2023-11-21T02:19:43;8.70;99.90
74488;DHT22;63019;51.080;13.642;2023-11-21T02:20:46;8.70;99.90
74488;DHT22;63019;51.080;13.642;2023-11-21T02:21:52;8.70;99.90
74488;DHT22;63019;51.080;13.642;2023-11-21T02:22:55;8.70;99.90
74488;DHT22;63019;51.080;13.642;2023-11-21T02:24:01;8.70;99.90
74488;DHT22;63019;51.080;13.642;2023-11-21T02:25:04;8.70;99.90
74488;DHT22;63019;51.080;13.642;2023-11-21T02:26:06;8.70;99.90
74488;DHT22;63019;51.080;13.642;2023-11-21T02:27:08;8.70;99.90
74488;DHT22;63019;51.080;13.642;2023-11-21T02:28:09;8.70;99.90
74488;DHT22;63019;51.080;13.642;2023-11-21T02:29:14;8.60;99.90
74488;DHT22;63019;51.080;13.642;2023-11-21T02:30:19;8.60;99.90
74488;DHT22;63019;51.080;13.642;2023-11-21T02:31:21;8.70;99.90
74488;DHT22;63019;51.080;13.642;2023-11-21T02:32:24;8.70;99.90
74488;DHT22;63019;51.080;13.642;2023-11-21T02:33:27;8.70;99.90
74488;DHT22;63019;51.080;13.642;2023-11-21T02:34:29;8.70;99.90
74488;DHT22;63019;51.080;13.642;2023-11-21T02:35:31;8.70;99.90
74488;DHT22;63019;51.080;13.642;2023-11-21T02:36:33;8.70;99.90
74488;DHT22;63019;51.080;13.642;2023-11-21T02:37:36;8.70;99.90
74488;DHT22;63019;51.080;13.642;2023-11-21T02:38:38;8.60;99.90
74488;DHT22;63019;51.080;13.642;2023-11-21T02:39:40;8.60;99.90
74488;DHT22;63019;51.080;13.642;2023-11-21T02:40:42;8.60;99.90
74488;DHT22;63019;51.080;13.642;2023-11-21T02:41:44;8.60;99.90
74488;DHT22;63019;51.080;13.642;2023-11-21T02:42:47;8.60;99.90
74488;DHT22;63019;51.080;13.642;2023-11-21T02:43:49;8.50;99.90
74488;DHT22;63019;51.080;13.642;2023-11-21T02:44:51;8.50;99.90
74488;DHT22;63019;51.080;13.642;2023-11-21T02:45:53;8.50;99.90
74488;DHT22;63019;51.080;13.642;2023-11-21T02:46:54;8.50;99.90
74488;DHT22;63019;51.080;13.642;2023-11-21T02:47:57;8.50;99.90
74488;DHT22;63019;51.080;13.642;2023-11-21T02:49:03;8.40;99.90
74488;DHT22;63019;51.080;13.642;2023-11-21T02:50:06;8.50;99.90
74488;DHT22;63019;51.080;13.642;2023-11-21T02:51:09;8.40;99.90
74488;DHT22;63019;51.080;13.642;2023-11-21T02:52:11;8.40;99.90
74488;DHT22;63019;51.080;13.642;2023-11-21T02:53:13;8.40;99.90
74488;DHT22;63019;51.080;13.642;2023-11-21T02:54:16;8.30;99.90
74488;DHT22;63019;51.080;13.642;2023-11-21T02:55:20;8.30;99.90
74488;DHT22;63019;51.080;13.642;2023-11-21T02:56:22;8.40;99.90
74488;DHT22;63019;51.080;13.642;2023-11-21T02:57:24;8.40;99.90
74488;DHT22;63019;51.080;13.642;2023-11-21T02:58:26;8.40;99.90
74488;DHT22;63019;51.080;13.642;2023-11-21T02:59:28;8.30;99.90
74488;DHT22;63019;51.080;13.642;2023-11-21T03:00:30;8.30;99.90
74488;DHT22;63019;51.080;13.642;2023-11-21T03:01:32;8.30;99.90
74488;DHT22;63019;51.080;13.642;2023-11-21T03:02:34;8.30;99.90
74488;DHT22;63019;51.080;13.642;2023-11-21T03:03:41;8.30;99.90
74488;DHT22;63019;51.080;13.642;2023-11-21T03:04:43;8.20;99.90
74488;DHT22;63019;51.080;13.642;2023-11-21T03:05:45;8.30;99.90
74488;DHT22;63019;51.080;13.642;2023-11-21T03:06:47;8.20;99.90
74488;DHT22;63019;51.080;13.642;2023-11-21T03:07:49;8.20;99.90
74488;DHT22;63019;51.080;13.642;2023-11-21T03:08:51;8.20;99.90
74488;DHT22;63019;51.080;13.642;2023-11-21T03:09:53;8.20;99.90
74488;DHT22;63019;51.080;13.642;2023-11-21T03:10:54;8.20;99.90
74488;DHT22;63019;51.080;13.642;2023-11-21T03:11:57;8.20;99.90
74488;DHT22;63019;51.080;13.642;2023-11-21T03:12:59;8.20;99.90
74488;DHT22;63019;51.080;13.642;2023-11-21T03:14:01;8.20;99.90
74488;DHT22;63019;51.080;13.642;2023-11-21T03:15:04;8.20;99.90
74488;DHT22;63019;51.080;13.642;2023-11-21T03:16:10;8.20;99.90
74488;DHT22;63019;51.080;13.642;2023-11-21T03:17:12;8.30;99.90
74488;DHT22;63019;51.080;13.642;2023-11-21T03:18:18;8.30;99.90
74488;DHT22;63019;51.080;13.642;2023-11-21T03:19:20;8.30;99.90
74488;DHT22;63019;51.080;13.642;2023-11-21T03:20:22;8.30;99.90
74488;DHT22;63019;51.080;13.642;2023-11-21T03:21:24;8.30;99.90
74488;DHT22;63019;51.080;13.642;2023-11-21T03:22:26;8.30;99.90
74488;DHT22;63019;51.080;13.642;2023-11-21T03:23:28;8.30;99.90
74488;DHT22;63019;51.080;13.642;2023-11-21T03:24:30;8.20;99.90
74488;DHT22;63019;51.080;13.642;2023-11-21T03:25:32;8.20;99.90
74488;DHT22;63019;51.080;13.642;2023-11-21T03:26:34;8.20;99.90
74488;DHT22;63019;51.080;13.642;2023-11-21T03:27:36;8.20;99.90
74488;DHT22;63019;51.080;13.642;2023-11-21T03:28:38;8.20;99.90
74488;DHT22;63019;51.080;13.642;2023-11-21T03:29:40;8.20;99.90
74488;DHT22;63019;51.080;13.642;2023-11-21T03:30:42;8.20;99.90
74488;DHT22;63019;51.080;13.642;2023-11-21T03:31:44;8.20;99.90
74488;DHT22;63019;51.080;13.642;2023-11-21T03:32:46;8.20;99.90
74488;DHT22;63019;51.080;13.642;2023-11-21T03:33:48;8.10;99.90
74488;DHT22;63019;51.080;13.642;2023-11-21T03:34:58;8.10;99.90
74488;DHT22;63019;51.080;13.642;2023-11-21T03:36:01;8.10;99.90
74488;DHT22;63019;51.080;13.642;2023-11-21T03:37:03;8.10;99.90
74488;DHT22;63019;51.080;13.642;2023-11-21T03:38:05;8.10;99.90
74488;DHT22;63019;51.080;13.642;2023-11-21T03:39:06;8.10;99.90
74488;DHT22;63019;51.080;13.642;2023-11-21T03:40:09;8.10;99.90
74488;DHT22;63019;51.080;13.642;2023-11-21T03:41:11;8.10;99.90
74488;DHT22;63019;51.080;13.642;2023-11-21T03:42:12;8.10;99.90
74488;DHT22;63019;51.080;13.642;2023-11-21T03:43:15;8.10;99.90
74488;DHT22;63019;51.080;13.642;2023-11-21T03:44:17;8.10;99.90
74488;DHT22;63019;51.080;13.642;2023-11-21T03:45:19;8.10;99.90
74488;DHT22;63019;51.080;13.642;2023-11-21T03:46:21;8.10;99.90
74488;DHT22;63019;51.080;13.642;2023-11-21T03:47:23;8.10;99.90
74488;DHT22;63019;51.080;13.642;2023-11-21T03:48:24;8.10;99.90
74488;DHT22;63019;51.080;13.642;2023-11-21T03:49:26;8.10;99.90
74488;DHT22;63019;51.080;13.642;2023-11-21T03:50:29;8.10;99.90
74488;DHT22;63019;51.080;13.642;2023-11-21T03:51:31;8.10;99.90
74488;DHT22;63019;51.080;13.642;2023-11-21T03:52:33;8.10;99.90
74488;DHT22;63019;51.080;13.642;2023-11-21T03:53:35;8.10;99.90
74488;DHT22;63019;51.080;13.642;2023-11-21T03:54:36;8.10;99.90
74488;DHT22;63019;51.080;13.642;2023-11-21T03:55:38;8.10;99.90
74488;DHT22;63019;51.080;13.642;2023-11-21T03:56:40;8.10;99.90
74488;DHT22;63019;51.080;13.642;2023-11-21T03:57:42;8.10;99.90
74488;DHT22;63019;51.080;13.642;2023-11-21T03:58:44;8.10;99.90
74488;DHT22;63019;51.080;13.642;2023-11-21T03:59:46;8.10;99.90
74488;DHT22;63019;51.080;13.642;2023-11-21T04:00:47;8.10;99.90
74488;DHT22;63019;51.080;13.642;2023-11-21T04:01:52;8.10;99.90
74488;DHT22;63019;51.080;13.642;2023-11-21T04:02:56;8.10;99.90
74488;DHT22;63019;51.080;13.642;2023-11-21T04:03:58;8.10;99.90
74488;DHT22;63019;51.080;13.642;2023-11-21T04:05:01;8.10;99.90
74488;DHT22;63019;51.080;13.642;2023-11-21T04:06:03;8.00;99.90
74488;DHT22;63019;51.080;13.642;2023-11-21T04:07:05;8.10;99.90
74488;DHT22;63019;51.080;13.642;2023-11-21T04:08:07;8.00;99.90
74488;DHT22;63019;51.080;13.642;2023-11-21T04:09:09;8.00;99.90
74488;DHT22;63019;51.080;13.642;2023-11-21T04:10:11;8.00;99.90
74488;DHT22;63019;51.080;13.642;2023-11-21T04:11:14;8.00;99.90
74488;DHT22;63019;51.080;13.642;2023-11-21T04:12:17;8.00;99.90
74488;DHT22;63019;51.080;13.642;2023-11-21T04:13:20;8.00;99.90
74488;DHT22;63019;51.080;13.642;2023-11-21T04:14:22;8.00;99.90
74488;DHT22;63019;51.080;13.642;2023-11-21T04:15:24;8.00;99.90
74488;DHT22;63019;51.080;13.642;2023-11-21T04:16:26;8.00;99.90
74488;DHT22;63019;51.080;13.642;2023-11-21T04:17:28;8.00;99.90
74488;DHT22;63019;51.080;13.642;2023-11-21T04:18:30;8.00;99.90
74488;DHT22;63019;51.080;13.642;2023-11-21T04:19:32;8.00;99.90
74488;DHT22;63019;51.080;13.642;2023-11-21T04:20:33;8.00;99.90
74488;DHT22;63019;51.080;13.642;2023-11-21T04:21:36;8.00;99.90
74488;DHT22;63019;51.080;13.642;2023-11-21T04:22:43;8.00;99.90
74488;DHT22;63019;51.080;13.642;2023-11-21T04:23:46;8.00;99.90
74488;DHT22;63019;51.080;13.642;2023-11-21T04:24:48;8.00;99.90
74488;DHT22;63019;51.080;13.642;2023-11-21T04:25:50;8.00;99.90
74488;DHT22;63019;51.080;13.642;2023-11-21T04:26:54;8.00;99.90
74488;DHT22;63019;51.080;13.642;2023-11-21T04:27:55;8.00;99.90
74488;DHT22;63019;51.080;13.642;2023-11-21T04:28:57;8.00;99.90
74488;DHT22;63019;51.080;13.642;2023-11-21T04:30:00;7.90;99.90
74488;DHT22;63019;51.080;13.642;2023-11-21T04:31:02;7.90;99.90
74488;DHT22;63019;51.080;13.642;2023-11-21T04:32:04;7.90;99.90
74488;DHT22;63019;51.080;13.642;2023-11-21T04:33:06;7.90;99.90
74488;DHT22;63019;51.080;13.642;2023-11-21T04:34:09;7.90;99.90
74488;DHT22;63019;51.080;13.642;2023-11-21T04:35:11;8.00;99.90
74488;DHT22;63019;51.080;13.642;2023-11-21T04:36:13;7.90;99.90
74488;DHT22;63019;51.080;13.642;2023-11-21T04:37:15;7.90;99.90
74488;DHT22;63019;51.080;13.642;2023-11-21T04:38:17;7.90;99.90
74488;DHT22;63019;51.080;13.642;2023-11-21T04:39:18;7.90;99.90
74488;DHT22;63019;51.080;13.642;2023-11-21T04:40:21;7.90;99.90
74488;DHT22;63019;51.080;13.642;2023-11-21T04:41:23;7.90;99.90
74488;DHT22;63019;51.080;13.642;2023-11-21T04:42:25;8.00;99.90
74488;DHT22;63019;51.080;13.642;2023-11-21T04:43:27;8.00;99.90
74488;DHT22;63019;51.080;13.642;2023-11-21T04:44:29;8.00;99.90
74488;DHT22;63019;51.080;13.642;2023-11-21T04:45:30;8.00;99.90
74488;DHT22;63019;51.080;13.642;2023-11-21T04:46:32;7.90;99.90
74488;DHT22;63019;51.080;13.642;2023-11-21T04:47:35;8.00;99.90
74488;DHT22;63019;51.080;13.642;2023-11-21T04:48:38;8.00;99.90
74488;DHT22;63019;51.080;13.642;2023-11-21T04:49:42;8.00;99.90
74488;DHT22;63019;51.080;13.642;2023-11-21T04:50:44;8.00;99.90
74488;DHT22;63019;51.080;13.642;2023-11-21T04:51:46;8.00;99.90
74488;DHT22;63019;51.080;13.642;2023-11-21T04:52:48;8.00;99.90
74488;DHT22;63019;51.080;13.642;2023-11-21T04:53:50;8.00;99.90
74488;DHT22;63019;51.080;13.642;2023-11-21T04:54:52;8.00;99.90
74488;DHT22;63019;51.080;13.642;2023-11-21T04:55:55;8.00;99.90
74488;DHT22;63019;51.080;13.642;2023-11-21T04:56:57;8.00;99.90
74488;DHT22;63019;51.080;13.642;2023-11-21T04:58:00;8.00;99.90
74488;DHT22;63019;51.080;13.642;2023-11-21T04:59:02;8.00;99.90
74488;DHT22;63019;51.080;13.642;2023-11-21T05:00:04;8.00;99.90
74488;DHT22;63019;51.080;13.642;2023-11-21T05:01:08;8.00;99.90
74488;DHT22;63019;51.080;13.642;2023-11-21T05:02:10;8.00;99.90
74488;DHT22;63019;51.080;13.642;2023-11-21T05:03:28;8.00;99.90
74488;DHT22;63019;51.080;13.642;2023-11-21T05:04:31;8.00;99.90
74488;DHT22;63019;51.080;13.642;2023-11-21T05:05:33;8.00;99.90
74488;DHT22;63019;51.080;13.642;2023-11-21T05:06:35;8.10;99.90
74488;DHT22;63019;51.080;13.642;2023-11-21T05:07:39;8.10;99.90
74488;DHT22;63019;51.080;13.642;2023-11-21T05:08:41;8.10;99.90
74488;DHT22;63019;51.080;13.642;2023-11-21T05:09:43;8.00;99.90
74488;DHT22;63019;51.080;13.642;2023-11-21T05:10:47;8.10;99.90
74488;DHT22;63019;51.080;13.642;2023-11-21T05:11:50;8.10;99.90
74488;DHT22;63019;51.080;13.642;2023-11-21T05:12:52;8.10;99.90
74488;DHT22;63019;51.080;13.642;2023-11-21T05:13:54;8.10;99.90
74488;DHT22;63019;51.080;13.642;2023-11-21T05:15:00;8.10;99.90
74488;DHT22;63019;51.080;13.642;2023-11-21T05:16:03;8.10;99.90
74488;DHT22;63019;51.080;13.642;2023-11-21T05:17:08;8.10;99.90
74488;DHT22;63019;51.080;13.642;2023-11-21T05:18:10;8.10;99.90
74488;DHT22;63019;51.080;13.642;2023-11-21T05:19:13;8.10;99.90
74488;DHT22;63019;51.080;13.642;2023-11-21T05:20:15;8.10;99.90
74488;DHT22;63019;51.080;13.642;2023-11-21T05:21:22;8.10;99.90
74488;DHT22;63019;51.080;13.642;2023-11-21T05:22:25;8.10;99.90
74488;DHT22;63019;51.080;13.642;2023-11-21T05:23:27;8.10;99.90
74488;DHT22;63019;51.080;13.642;2023-11-21T05:24:28;8.10;99.90
74488;DHT22;63019;51.080;13.642;2023-11-21T05:25:30;8.10;99.90
74488;DHT22;63019;51.080;13.642;2023-11-21T05:26:34;8.10;99.90
74488;DHT22;63019;51.080;13.642;2023-11-21T05:27:36;8.10;99.90
74488;DHT22;63019;51.080;13.642;2023-11-21T05:28:38;8.10;99.90
74488;DHT22;63019;51.080;13.642;2023-11-21T05:29:39;8.10;99.90
74488;DHT22;63019;51.080;13.642;2023-11-21T05:30:41;8.00;99.90
74488;DHT22;63019;51.080;13.642;2023-11-21T05:31:43;8.00;99.90
74488;DHT22;63019;51.080;13.642;2023-11-21T05:32:45;8.10;99.90
74488;DHT22;63019;51.080;13.642;2023-11-21T05:33:48;8.10;99.90
74488;DHT22;63019;51.080;13.642;2023-11-21T05:34:50;8.10;99.90
74488;DHT22;63019;51.080;13.642;2023-11-21T05:35:52;8.10;99.90
74488;DHT22;63019;51.080;13.642;2023-11-21T05:36:54;8.10;99.90
74488;DHT22;63019;51.080;13.642;2023-11-21T05:37:56;8.10;99.90
74488;DHT22;63019;51.080;13.642;2023-11-21T05:38:58;8.10;99.90
74488;DHT22;63019;51.080;13.642;2023-11-21T05:39:59;8.10;99.90
74488;DHT22;63019;51.080;13.642;2023-11-21T05:41:06;8.10;99.90
74488;DHT22;63019;51.080;13.642;2023-11-21T05:42:08;8.10;99.90
74488;DHT22;63019;51.080;13.642;2023-11-21T05:43:12;8.10;99.90
74488;DHT22;63019;51.080;13.642;2023-11-21T05:44:14;8.10;99.90
74488;DHT22;63019;51.080;13.642;2023-11-21T05:45:16;8.10;99.90
74488;DHT22;63019;51.080;13.642;2023-11-21T05:46:18;8.10;99.90
74488;DHT22;63019;51.080;13.642;2023-11-21T05:47:20;8.00;99.90
74488;DHT22;63019;51.080;13.642;2023-11-21T05:48:23;8.10;99.90
74488;DHT22;63019;51.080;13.642;2023-11-21T05:49:25;8.10;99.90
74488;DHT22;63019;51.080;13.642;2023-11-21T05:50:28;8.00;99.90
74488;DHT22;63019;51.080;13.642;2023-11-21T05:51:30;8.00;99.90
74488;DHT22;63019;51.080;13.642;2023-11-21T05:52:32;8.00;99.90
74488;DHT22;63019;51.080;13.642;2023-11-21T05:53:36;8.00;99.90
74488;DHT22;63019;51.080;13.642;2023-11-21T05:54:38;8.00;99.90
74488;DHT22;63019;51.080;13.642;2023-11-21T05:55:40;8.00;99.90
74488;DHT22;63019;51.080;13.642;2023-11-21T05:56:42;8.00;99.90
74488;DHT22;63019;51.080;13.642;2023-11-21T05:57:44;8.00;99.90
74488;DHT22;63019;51.080;13.642;2023-11-21T05:58:46;7.90;99.90
74488;DHT22;63019;51.080;13.642;2023-11-21T05:59:48;7.90;99.90
74488;DHT22;63019;51.080;13.642;2023-11-21T06:00:49;7.90;99.90
74488;DHT22;63019;51.080;13.642;2023-11-21T06:01:51;7.90;99.90
74488;DHT22;63019;51.080;13.642;2023-11-21T06:02:53;7.90;99.90
74488;DHT22;63019;51.080;13.642;2023-11-21T06:03:56;7.90;99.90
74488;DHT22;63019;51.080;13.642;2023-11-21T06:04:59;7.90;99.90
74488;DHT22;63019;51.080;13.642;2023-11-21T06:06:01;7.90;99.90
74488;DHT22;63019;51.080;13.642;2023-11-21T06:07:03;7.90;99.90
74488;DHT22;63019;51.080;13.642;2023-11-21T06:08:05;7.90;99.90
74488;DHT22;63019;51.080;13.642;2023-11-21T06:09:09;7.90;99.90
74488;DHT22;63019;51.080;13.642;2023-11-21T06:10:11;7.90;99.90
74488;DHT22;63019;51.080;13.642;2023-11-21T06:11:16;7.90;99.90
74488;DHT22;63019;51.080;13.642;2023-11-21T06:12:18;8.00;99.90
74488;DHT22;63019;51.080;13.642;2023-11-21T06:13:22;8.00;99.90
74488;DHT22;63019;51.080;13.642;2023-11-21T06:14:26;7.90;99.90
74488;DHT22;63019;51.080;13.642;2023-11-21T06:15:28;7.90;99.90
74488;DHT22;63019;51.080;13.642;2023-11-21T06:16:30;7.90;99.90
74488;DHT22;63019;51.080;13.642;2023-11-21T06:17:32;7.90;99.90
74488;DHT22;63019;51.080;13.642;2023-11-21T06:18:35;7.80;99.90
74488;DHT22;63019;51.080;13.642;2023-11-21T06:19:37;7.80;99.90
74488;DHT22;63019;51.080;13.642;2023-11-21T06:20:39;7.80;99.90
74488;DHT22;63019;51.080;13.642;2023-11-21T06:21:41;7.80;99.90
74488;DHT22;63019;51.080;13.642;2023-11-21T06:22:48;7.80;99.90
74488;DHT22;63019;51.080;13.642;2023-11-21T06:23:50;7.80;99.90
74488;DHT22;63019;51.080;13.642;2023-11-21T06:24:54;7.80;99.90
74488;DHT22;63019;51.080;13.642;2023-11-21T06:25:56;7.80;99.90
74488;DHT22;63019;51.080;13.642;2023-11-21T06:27:27;7.80;99.90
74488;DHT22;63019;51.080;13.642;2023-11-21T06:28:28;7.80;99.90
74488;DHT22;63019;51.080;13.642;2023-11-21T06:29:30;7.80;99.90
74488;DHT22;63019;51.080;13.642;2023-11-21T06:30:33;7.80;99.90
74488;DHT22;63019;51.080;13.642;2023-11-21T06:31:35;7.80;99.90
74488;DHT22;63019;51.080;13.642;2023-11-21T06:32:38;7.80;99.90
74488;DHT22;63019;51.080;13.642;2023-11-21T06:33:41;7.80;99.90
74488;DHT22;63019;51.080;13.642;2023-11-21T06:34:43;7.80;99.90
74488;DHT22;63019;51.080;13.642;2023-11-21T06:35:45;7.80;99.90